createdAt,value
2022-08-23T00:01:21.139Z,22.99
2022-08-23T00:03:51.070Z,22.98
2022-08-23T00:06:18.443Z,22.98
2022-08-23T00:08:48.318Z,22.98
2022-08-23T00:11:34.946Z,22.98
2022-08-23T00:14:07.724Z,22.98
2022-08-23T00:16:35.331Z,22.98
2022-08-23T00:19:03.999Z,22.97
2022-08-23T00:21:30.682Z,22.98
2022-08-23T00:23:57.567Z,22.98
2022-08-23T00:26:25.088Z,22.97
2022-08-23T00:28:52.121Z,22.97
2022-08-23T00:31:19.706Z,22.98
2022-08-23T00:33:46.498Z,22.97
2022-08-23T00:36:13.224Z,22.97
2022-08-23T00:38:40.282Z,22.96
2022-08-23T00:41:06.923Z,22.97
2022-08-23T00:43:59.630Z,22.97
2022-08-23T00:47:08.431Z,22.96
2022-08-23T00:49:37.267Z,22.97
2022-08-23T00:52:07.664Z,22.95
2022-08-23T00:54:36.310Z,22.96
2022-08-23T00:57:08.176Z,22.96
2022-08-23T00:59:34.798Z,22.95
2022-08-23T01:02:01.899Z,22.95
2022-08-23T01:04:33.279Z,22.95
2022-08-23T01:07:09.956Z,22.96
2022-08-23T01:09:39.637Z,22.95
2022-08-23T01:12:11.611Z,22.96
2022-08-23T01:14:47.412Z,22.96
2022-08-23T01:17:22.583Z,22.95
2022-08-23T01:19:59.784Z,22.94
2022-08-23T01:23:15.768Z,22.95
2022-08-23T01:25:42.442Z,22.94
2022-08-23T01:28:09.066Z,22.94
2022-08-23T01:30:36.371Z,22.95
2022-08-23T01:33:04.288Z,22.94
2022-08-23T01:35:37.591Z,22.95
2022-08-23T01:38:04.562Z,22.96
2022-08-23T01:40:31.895Z,22.94
2022-08-23T01:42:59.024Z,22.94
2022-08-23T01:45:25.706Z,22.93
2022-08-23T01:47:52.221Z,22.93
2022-08-23T01:50:18.976Z,22.93
2022-08-23T01:52:47.047Z,22.92
2022-08-23T01:55:14.588Z,22.93
2022-08-23T01:57:43.851Z,22.93
2022-08-23T02:00:13.836Z,22.92
2022-08-23T02:02:41.638Z,22.92
2022-08-23T02:05:10.598Z,22.93
2022-08-23T02:07:37.192Z,22.91
2022-08-23T02:10:07.956Z,22.92
2022-08-23T02:12:34.759Z,22.92
2022-08-23T02:15:01.347Z,22.92
2022-08-23T02:17:28.271Z,22.93
2022-08-23T02:19:55.814Z,22.91
2022-08-23T02:22:22.751Z,22.92
2022-08-23T02:24:49.326Z,22.92
2022-08-23T02:27:16.707Z,22.91
2022-08-23T02:29:46.525Z,22.91
2022-08-23T02:32:17.379Z,22.91
2022-08-23T02:35:05.341Z,22.92
2022-08-23T02:37:32.619Z,22.92
2022-08-23T02:39:59.219Z,22.91
2022-08-23T02:42:25.877Z,22.90
2022-08-23T02:44:52.409Z,22.91
2022-08-23T02:47:19.496Z,22.90
2022-08-23T02:49:46.583Z,22.90
2022-08-23T02:52:13.124Z,22.91
2022-08-23T02:54:39.827Z,22.90
2022-08-23T02:57:06.859Z,22.89
2022-08-23T02:59:33.540Z,22.90
2022-08-23T03:02:00.181Z,22.89
2022-08-23T03:04:26.951Z,22.90
2022-08-23T03:06:53.572Z,22.89
2022-08-23T03:09:20.096Z,22.89
2022-08-23T03:11:49.550Z,22.90
2022-08-23T03:14:16.376Z,22.89
2022-08-23T03:16:43.072Z,22.90
2022-08-23T03:19:09.655Z,22.89
2022-08-23T03:21:36.271Z,22.89
2022-08-23T03:24:06.832Z,22.89
2022-08-23T03:26:36.063Z,22.88
2022-08-23T03:29:03.715Z,22.89
2022-08-23T03:31:31.038Z,22.89
2022-08-23T03:33:58.218Z,22.88
2022-08-23T03:36:28.305Z,22.87
2022-08-23T03:38:55.629Z,22.88
2022-08-23T03:41:22.450Z,22.88
2022-08-23T03:43:49.011Z,22.89
2022-08-23T03:46:22.986Z,22.88
2022-08-23T03:48:55.351Z,22.88
2022-08-23T03:51:23.260Z,22.87
2022-08-23T03:53:50.363Z,22.87
2022-08-23T03:56:31.831Z,22.87
2022-08-23T03:59:01.983Z,22.87
2022-08-23T04:01:29.010Z,22.86
2022-08-23T04:04:00.188Z,22.87
2022-08-23T04:06:28.033Z,22.86
2022-08-23T04:08:55.263Z,22.86
2022-08-23T04:11:22.582Z,22.86
2022-08-23T04:13:49.570Z,22.88
2022-08-23T04:16:18.904Z,22.86
2022-08-23T04:18:46.178Z,22.85
2022-08-23T04:21:15.653Z,22.86
2022-08-23T04:23:43.304Z,22.86
2022-08-23T04:26:10.864Z,22.86
2022-08-23T04:28:38.727Z,22.86
2022-08-23T04:31:05.635Z,22.85
2022-08-23T04:33:34.015Z,22.84
2022-08-23T04:36:01.875Z,22.84
2022-08-23T04:38:29.324Z,22.84
2022-08-23T04:41:15.207Z,22.84
2022-08-23T04:43:44.043Z,22.85
2022-08-23T04:46:13.474Z,22.84
2022-08-23T04:48:40.397Z,22.85
2022-08-23T04:51:06.947Z,22.84
2022-08-23T04:53:35.389Z,22.84
2022-08-23T04:56:03.979Z,22.83
2022-08-23T04:58:31.934Z,22.83
2022-08-23T05:01:00.478Z,22.83
2022-08-23T05:03:29.479Z,22.83
2022-08-23T05:05:56.771Z,22.83
2022-08-23T05:08:23.218Z,22.83
2022-08-23T05:10:49.952Z,22.83
2022-08-23T05:13:16.700Z,22.83
2022-08-23T05:15:44.283Z,22.82
2022-08-23T05:18:11.339Z,22.82
2022-08-23T05:20:38.591Z,22.82
2022-08-23T05:23:05.131Z,22.82
2022-08-23T05:25:50.005Z,22.82
2022-08-23T05:28:23.518Z,22.82
2022-08-23T05:31:11.617Z,22.82
2022-08-23T05:33:39.247Z,22.81
2022-08-23T05:36:06.185Z,22.81
2022-08-23T05:38:32.872Z,22.81
2022-08-23T05:41:02.077Z,22.81
2022-08-23T05:43:32.341Z,22.82
2022-08-23T05:46:04.957Z,22.81
2022-08-23T05:48:33.562Z,22.81
2022-08-23T05:51:17.855Z,22.80
2022-08-23T05:53:46.518Z,22.81
2022-08-23T05:56:20.509Z,22.80
2022-08-23T05:58:48.201Z,22.81
2022-08-23T06:01:15.992Z,22.80
2022-08-23T06:03:43.475Z,22.81
2022-08-23T06:06:11.319Z,22.81
2022-08-23T06:08:40.787Z,22.80
2022-08-23T06:11:15.842Z,22.80
2022-08-23T06:13:48.493Z,22.81
2022-08-23T06:16:18.069Z,22.79
2022-08-23T06:18:45.725Z,22.79
2022-08-23T06:21:14.723Z,22.80
2022-08-23T06:23:42.629Z,22.80
2022-08-23T06:26:20.623Z,22.80
2022-08-23T06:28:52.840Z,22.79
2022-08-23T06:31:56.089Z,22.79
2022-08-23T06:34:32.340Z,22.79
2022-08-23T06:37:04.794Z,22.79
2022-08-23T06:39:36.793Z,22.80
2022-08-23T06:42:34.833Z,22.80
2022-08-23T06:44:57.886Z,22.79
2022-08-23T06:47:24.462Z,22.80
2022-08-23T06:49:57.864Z,22.80
2022-08-23T06:52:27.530Z,22.81
2022-08-23T06:54:54.424Z,22.80
2022-08-23T06:57:20.995Z,22.81
2022-08-23T06:59:49.838Z,22.81
2022-08-23T07:02:16.497Z,22.82
2022-08-23T07:04:43.255Z,22.82
2022-08-23T07:07:11.972Z,22.82
2022-08-23T07:09:40.366Z,22.83
2022-08-23T07:12:07.269Z,22.82
2022-08-23T07:14:33.858Z,22.83
2022-08-23T07:17:03.398Z,22.83
2022-08-23T07:19:33.111Z,22.83
2022-08-23T07:22:01.687Z,22.84
2022-08-23T07:24:33.082Z,22.84
2022-08-23T07:27:01.487Z,22.84
2022-08-23T07:29:29.949Z,22.84
2022-08-23T07:31:58.064Z,22.83
2022-08-23T07:34:25.215Z,22.83
2022-08-23T07:36:52.971Z,22.84
2022-08-23T07:39:22.210Z,22.85
2022-08-23T07:41:49.563Z,22.84
2022-08-23T07:44:18.273Z,22.85
2022-08-23T07:46:46.780Z,22.84
2022-08-23T07:49:14.490Z,22.85
2022-08-23T07:51:42.712Z,22.83
2022-08-23T07:54:11.249Z,22.84
2022-08-23T07:56:38.259Z,22.87
2022-08-23T07:59:06.827Z,22.87
2022-08-23T08:01:33.908Z,22.88
2022-08-23T08:04:02.441Z,22.88
2022-08-23T08:06:35.123Z,22.88
2022-08-23T08:09:02.565Z,22.88
2022-08-23T08:11:34.909Z,22.89
2022-08-23T08:14:07.466Z,22.90
2022-08-23T08:16:40.444Z,22.89
2022-08-23T08:19:09.382Z,22.88
2022-08-23T08:21:39.657Z,22.88
2022-08-23T08:24:11.381Z,22.86
2022-08-23T08:26:38.800Z,22.87
2022-08-23T08:29:06.393Z,22.88
2022-08-23T08:31:34.283Z,22.88
2022-08-23T08:34:00.923Z,22.88
2022-08-23T08:36:35.335Z,22.87
2022-08-23T08:39:05.081Z,22.87
2022-08-23T08:42:04.718Z,22.86
2022-08-23T08:45:12.042Z,22.84
2022-08-23T08:48:17.083Z,22.84
2022-08-23T08:50:49.774Z,22.83
2022-08-23T08:53:25.736Z,22.83
2022-08-23T08:56:20.916Z,22.83
2022-08-23T08:58:53.904Z,22.82
2022-08-23T09:01:24.542Z,22.84
2022-08-23T09:03:52.491Z,22.86
2022-08-23T09:06:21.899Z,22.84
2022-08-23T09:09:02.646Z,22.83
2022-08-23T09:11:42.025Z,22.82
2022-08-23T09:14:14.419Z,22.83
2022-08-23T09:16:43.744Z,22.83
2022-08-23T09:19:11.182Z,22.82
2022-08-23T09:21:43.036Z,22.81
2022-08-23T09:24:09.607Z,22.82
2022-08-23T09:26:36.990Z,22.83
2022-08-23T09:29:08.616Z,22.83
2022-08-23T09:32:02.490Z,22.83
2022-08-23T09:34:37.696Z,22.84
2022-08-23T09:37:13.099Z,22.85
2022-08-23T09:39:43.113Z,22.84
2022-08-23T09:42:47.284Z,22.86
2022-08-23T09:45:35.873Z,22.86
2022-08-23T09:48:04.875Z,22.84
2022-08-23T09:50:42.246Z,22.86
2022-08-23T09:53:14.529Z,22.85
2022-08-23T09:55:54.616Z,22.86
2022-08-23T09:58:32.296Z,22.84
2022-08-23T10:01:32.587Z,22.85
2022-08-23T10:04:25.394Z,22.86
2022-08-23T10:06:53.023Z,22.87
2022-08-23T10:09:29.471Z,22.86
2022-08-23T10:11:58.683Z,22.86
2022-08-23T10:14:28.686Z,22.87
2022-08-23T10:17:39.266Z,22.88
2022-08-23T10:20:21.622Z,22.88
2022-08-23T10:23:17.939Z,22.89
2022-08-23T10:26:00.269Z,22.89
2022-08-23T10:28:57.563Z,22.89
2022-08-23T10:31:32.471Z,22.90
2022-08-23T10:34:24.083Z,22.89
2022-08-23T10:36:59.808Z,22.88
2022-08-23T10:39:29.092Z,22.88
2022-08-23T10:42:28.182Z,22.88
2022-08-23T10:45:04.811Z,22.88
2022-08-23T10:47:37.668Z,22.88
2022-08-23T10:50:19.773Z,22.88
2022-08-23T10:52:57.635Z,22.88
2022-08-23T10:55:43.806Z,22.90
2022-08-23T10:58:16.879Z,22.88
2022-08-23T11:00:43.790Z,22.88
2022-08-23T11:03:31.673Z,22.88
2022-08-23T11:06:35.234Z,22.88
2022-08-23T11:09:21.962Z,22.87
2022-08-23T11:12:24.979Z,22.87
2022-08-23T11:14:59.690Z,22.86
2022-08-23T11:17:52.051Z,22.85
2022-08-23T11:21:05.743Z,22.85
2022-08-23T11:23:44.011Z,22.85
2022-08-23T11:26:37.756Z,22.84
2022-08-23T11:29:07.039Z,22.85
2022-08-23T11:31:33.499Z,22.84
2022-08-23T11:34:05.010Z,22.84
2022-08-23T11:36:33.483Z,22.84
2022-08-23T11:39:07.220Z,22.84
2022-08-23T11:42:01.106Z,22.84
2022-08-23T11:44:39.450Z,22.83
2022-08-23T11:47:09.730Z,22.84
2022-08-23T11:49:39.178Z,22.83
2022-08-23T11:52:16.216Z,22.84
2022-08-23T11:54:54.804Z,22.83
2022-08-23T11:57:49.092Z,22.84
2022-08-23T12:00:29.162Z,22.82
2022-08-23T12:03:05.527Z,22.82
2022-08-23T12:05:52.094Z,22.82
2022-08-23T12:08:30.107Z,22.83
2022-08-23T12:10:56.571Z,22.82
2022-08-23T12:13:23.045Z,22.82
2022-08-23T12:16:17.013Z,22.82
2022-08-23T12:18:47.777Z,22.83
2022-08-23T12:21:41.742Z,22.81
2022-08-23T12:24:32.613Z,22.81
2022-08-23T12:27:25.534Z,22.81
2022-08-23T12:29:52.005Z,22.81
2022-08-23T12:32:34.054Z,22.80
2022-08-23T12:35:11.283Z,22.81
2022-08-23T12:37:45.790Z,22.80
2022-08-23T12:40:23.046Z,22.80
2022-08-23T12:42:51.355Z,22.80
2022-08-23T12:45:26.135Z,22.81
2022-08-23T12:47:59.108Z,22.80
2022-08-23T12:50:33.042Z,22.81
2022-08-23T12:53:13.696Z,22.79
2022-08-23T12:55:51.079Z,22.80
2022-08-23T12:58:31.489Z,22.80
2022-08-23T13:01:16.719Z,22.79
2022-08-23T13:03:47.280Z,22.80
2022-08-23T13:06:19.067Z,22.79
2022-08-23T13:08:57.002Z,22.79
2022-08-23T13:11:27.598Z,22.80
2022-08-23T13:13:55.366Z,22.79
2022-08-23T13:16:37.109Z,22.79
2022-08-23T13:19:15.759Z,22.79
2022-08-23T13:21:42.570Z,22.80
2022-08-23T13:24:33.730Z,22.79
2022-08-23T13:27:27.246Z,22.80
2022-08-23T13:29:56.539Z,22.78
2022-08-23T13:32:38.371Z,22.79
2022-08-23T13:35:30.588Z,22.78
2022-08-23T13:38:21.284Z,22.79
2022-08-23T13:41:26.301Z,22.79
2022-08-23T13:43:53.290Z,22.79
2022-08-23T13:46:28.523Z,22.79
2022-08-23T13:49:00.036Z,22.79
2022-08-23T13:51:31.039Z,22.79
2022-08-23T13:54:00.874Z,22.78
2022-08-23T13:56:29.777Z,22.78
2022-08-23T13:59:00.444Z,22.78
2022-08-23T14:01:27.450Z,22.78
2022-08-23T14:03:54.255Z,22.78
2022-08-23T14:06:21.072Z,22.78
2022-08-23T14:08:48.520Z,22.78
2022-08-23T14:11:16.167Z,22.77
2022-08-23T14:13:48.383Z,22.78
2022-08-23T14:16:33.198Z,22.78
2022-08-23T14:19:54.874Z,22.78
2022-08-23T14:21:48.417Z,22.78
2022-08-23T14:24:15.000Z,22.78
2022-08-23T14:26:50.329Z,22.78
2022-08-23T14:29:19.903Z,22.78
2022-08-23T14:31:49.470Z,22.78
2022-08-23T14:34:16.031Z,22.77
2022-08-23T14:37:21.524Z,22.77
2022-08-23T14:39:29.404Z,22.78
2022-08-23T14:41:55.963Z,22.78
2022-08-23T14:44:22.899Z,22.78
2022-08-23T14:46:49.829Z,22.78
2022-08-23T14:49:16.467Z,22.78
2022-08-23T14:51:48.321Z,22.78
2022-08-23T14:54:23.043Z,22.78
2022-08-23T14:56:49.940Z,22.80
2022-08-23T14:59:16.947Z,22.81
2022-08-23T15:01:44.187Z,22.82
2022-08-23T15:04:11.767Z,22.84
2022-08-23T15:06:54.913Z,22.84
2022-08-23T15:09:27.419Z,22.84
2022-08-23T15:14:41.560Z,22.87
2022-08-23T15:17:08.094Z,22.87
2022-08-23T15:19:34.660Z,22.89
2022-08-23T15:22:06.117Z,22.90
2022-08-23T15:24:45.554Z,22.91
2022-08-23T15:27:12.440Z,22.91
2022-08-23T15:29:39.113Z,22.92
2022-08-23T15:32:05.959Z,22.92
2022-08-23T15:34:35.531Z,22.93
2022-08-23T15:37:02.176Z,22.94
2022-08-23T15:39:28.847Z,22.95
2022-08-23T15:41:55.427Z,22.96
2022-08-23T15:44:21.984Z,22.96
2022-08-23T15:46:50.017Z,22.96
2022-08-23T15:49:18.680Z,22.97
2022-08-23T15:51:45.794Z,22.97
2022-08-23T15:54:12.510Z,22.97
2022-08-23T15:56:47.451Z,22.98
2022-08-23T15:59:16.923Z,22.99
2022-08-23T16:01:43.849Z,22.98
2022-08-23T16:04:10.679Z,22.99
2022-08-23T16:06:39.439Z,22.99
2022-08-23T16:09:08.177Z,22.98
2022-08-23T16:11:35.337Z,22.98
2022-08-23T16:14:02.059Z,23.01
2022-08-23T16:16:31.358Z,22.98
2022-08-23T16:18:59.875Z,22.99
2022-08-23T16:21:29.173Z,23.00
2022-08-23T16:23:56.766Z,23.01
2022-08-23T16:26:34.917Z,22.99
2022-08-23T16:29:04.069Z,23.01
2022-08-23T16:31:38.693Z,23.01
2022-08-23T16:34:12.585Z,23.01
2022-08-23T16:36:43.608Z,23.02
2022-08-23T16:39:11.618Z,23.00
2022-08-23T16:41:38.516Z,23.01
2022-08-23T16:44:05.792Z,23.01
2022-08-23T16:46:32.511Z,23.02
2022-08-23T16:48:59.071Z,23.02
2022-08-23T16:51:25.710Z,23.02
2022-08-23T16:54:00.588Z,23.02
2022-08-23T16:56:29.939Z,23.00
2022-08-23T16:58:56.894Z,23.04
2022-08-23T17:01:23.898Z,23.03
2022-08-23T17:03:50.883Z,23.04
2022-08-23T17:06:18.188Z,23.05
2022-08-23T17:08:45.093Z,23.05
2022-08-23T17:11:17.248Z,23.05
2022-08-23T17:13:44.259Z,23.06
2022-08-23T17:16:11.181Z,23.06
2022-08-23T17:18:38.581Z,23.05
2022-08-23T17:21:05.817Z,23.07
2022-08-23T17:23:32.614Z,23.09
2022-08-23T17:26:00.582Z,23.09
2022-08-23T17:28:28.175Z,23.09
2022-08-23T17:30:58.262Z,23.09
2022-08-23T17:33:24.827Z,23.09
2022-08-23T17:35:51.419Z,23.10
2022-08-23T17:38:18.211Z,23.09
2022-08-23T17:40:44.791Z,23.10
2022-08-23T17:43:12.715Z,23.10
2022-08-23T17:45:45.809Z,23.11
2022-08-23T17:48:13.284Z,23.12
2022-08-23T17:50:43.566Z,23.12
2022-08-23T17:53:11.316Z,23.11
2022-08-23T17:55:38.035Z,23.11
2022-08-23T17:58:05.329Z,23.10
2022-08-23T18:00:35.452Z,23.09
2022-08-23T18:03:02.169Z,23.08
2022-08-23T18:05:33.235Z,23.08
2022-08-23T18:08:00.755Z,23.08
2022-08-23T18:10:29.843Z,23.09
2022-08-23T18:12:57.618Z,23.07
2022-08-23T18:15:24.416Z,23.08
2022-08-23T18:17:51.791Z,23.09
2022-08-23T18:20:23.240Z,23.10
2022-08-23T18:22:49.771Z,23.10
2022-08-23T18:25:17.048Z,23.09
2022-08-23T18:28:02.753Z,23.10
2022-08-23T18:30:29.641Z,23.10
2022-08-23T18:32:57.437Z,23.10
2022-08-23T18:35:30.519Z,23.09
2022-08-23T18:37:58.010Z,23.10
2022-08-23T18:40:26.659Z,23.08
2022-08-23T18:42:53.447Z,23.08
2022-08-23T18:45:20.251Z,23.06
2022-08-23T18:47:48.524Z,23.05
2022-08-23T18:50:16.586Z,23.06
2022-08-23T18:52:43.287Z,23.07
2022-08-23T18:55:10.026Z,23.06
2022-08-23T18:57:36.697Z,23.06
2022-08-23T19:00:05.621Z,23.06
2022-08-23T19:02:34.040Z,23.07
2022-08-23T19:05:02.950Z,23.08
2022-08-23T19:07:29.639Z,23.09
2022-08-23T19:09:56.240Z,23.08
2022-08-23T19:12:22.854Z,23.06
2022-08-23T19:14:49.447Z,23.07
2022-08-23T19:17:16.031Z,23.07
2022-08-23T19:19:42.611Z,23.06
2022-08-23T19:22:09.256Z,23.06
2022-08-23T19:24:35.779Z,23.07
2022-08-23T19:27:02.467Z,23.07
2022-08-23T19:29:28.995Z,23.07
2022-08-23T19:31:55.635Z,23.06
2022-08-23T19:34:22.894Z,23.07
2022-08-23T19:36:56.687Z,23.06
2022-08-23T19:39:26.144Z,23.07
2022-08-23T19:41:52.824Z,23.06
2022-08-23T19:44:19.516Z,23.08
2022-08-23T19:46:46.178Z,23.08
2022-08-23T19:49:14.615Z,23.05
2022-08-23T19:51:41.616Z,23.04
2022-08-23T19:54:10.927Z,23.03
2022-08-23T19:56:42.291Z,23.03
2022-08-23T19:59:16.377Z,23.03
2022-08-23T20:01:43.101Z,23.04
2022-08-23T20:04:10.667Z,23.02
2022-08-23T20:06:37.393Z,23.02
2022-08-23T20:09:05.116Z,23.06
2022-08-23T20:11:32.477Z,23.03
2022-08-23T20:14:00.395Z,23.00
2022-08-23T20:16:28.090Z,22.98
2022-08-23T20:18:55.350Z,22.97
2022-08-23T20:21:23.631Z,22.98
2022-08-23T20:24:04.221Z,23.00
2022-08-23T20:26:36.522Z,23.01
2022-08-23T20:29:04.776Z,23.01
2022-08-23T20:31:37.797Z,23.01
2022-08-23T20:34:06.380Z,22.98
2022-08-23T20:36:33.450Z,22.99
2022-08-23T20:39:01.495Z,22.97
2022-08-23T20:41:32.123Z,22.97
2022-08-23T20:44:00.328Z,22.99
2022-08-23T20:46:27.201Z,22.98
2022-08-23T20:48:54.343Z,22.98
2022-08-23T20:51:21.197Z,22.99
2022-08-23T20:53:48.027Z,23.01
2022-08-23T20:56:16.053Z,23.02
2022-08-23T20:58:43.161Z,23.01
2022-08-23T21:01:11.195Z,23.00
2022-08-23T21:03:38.398Z,22.98
2022-08-23T21:06:06.242Z,22.98
2022-08-23T21:08:33.634Z,22.97
2022-08-23T21:11:01.922Z,22.96
2022-08-23T21:13:29.404Z,22.95
2022-08-23T21:15:56.104Z,22.95
2022-08-23T21:18:23.039Z,22.93
2022-08-23T21:20:49.952Z,22.93
2022-08-23T21:23:17.676Z,22.93
2022-08-23T21:25:44.204Z,22.93
2022-08-23T21:28:11.904Z,22.93
2022-08-23T21:30:39.574Z,22.92
2022-08-23T21:33:07.844Z,22.92
2022-08-23T21:35:34.857Z,22.92
2022-08-23T21:38:01.631Z,22.90
2022-08-23T21:40:29.023Z,22.91
2022-08-23T21:42:55.620Z,22.90
2022-08-23T21:45:22.571Z,22.90
2022-08-23T21:47:49.187Z,22.90
2022-08-23T21:50:16.117Z,22.91
2022-08-23T21:52:43.658Z,22.89
2022-08-23T21:55:19.118Z,22.90
2022-08-23T21:57:46.431Z,22.89
2022-08-23T22:00:17.005Z,22.89
2022-08-23T22:02:43.711Z,22.89
2022-08-23T22:05:10.387Z,22.88
2022-08-23T22:07:36.929Z,22.88
2022-08-23T22:10:06.930Z,22.88
2022-08-23T22:12:34.077Z,22.87
2022-08-23T22:15:00.612Z,22.87
2022-08-23T22:17:27.597Z,22.87
2022-08-23T22:19:54.129Z,22.87
2022-08-23T22:22:21.405Z,22.87
2022-08-23T22:24:47.903Z,22.87
2022-08-23T22:27:14.436Z,22.87
2022-08-23T22:29:40.958Z,22.87
2022-08-23T22:32:09.346Z,22.87
2022-08-23T22:34:35.931Z,22.86
2022-08-23T22:37:02.991Z,22.85
2022-08-23T22:39:29.613Z,22.87
2022-08-23T22:41:56.134Z,22.85
2022-08-23T22:44:22.697Z,22.86
2022-08-23T22:46:49.234Z,22.85
2022-08-23T22:49:15.959Z,22.86
2022-08-23T22:51:42.709Z,22.85
2022-08-23T22:54:10.800Z,22.84
2022-08-23T22:56:41.035Z,22.84
2022-08-23T22:59:08.900Z,22.84
2022-08-23T23:01:39.908Z,22.84
2022-08-23T23:04:08.713Z,22.84
2022-08-23T23:06:35.890Z,22.84
2022-08-23T23:09:03.621Z,22.83
2022-08-23T23:11:30.294Z,22.84
2022-08-23T23:13:58.047Z,22.84
2022-08-23T23:16:26.787Z,22.83
2022-08-23T23:19:13.168Z,22.83
2022-08-23T23:21:45.831Z,22.82
2022-08-23T23:24:15.029Z,22.83
2022-08-23T23:26:42.318Z,22.83
2022-08-23T23:29:14.603Z,22.83
2022-08-23T23:31:41.264Z,22.82
2022-08-23T23:34:08.323Z,22.83
2022-08-23T23:36:35.064Z,22.82
2022-08-23T23:39:03.918Z,22.82
2022-08-23T23:41:31.171Z,22.82
2022-08-23T23:43:57.717Z,22.82
2022-08-23T23:46:25.076Z,22.82
2022-08-23T23:48:51.910Z,22.82
2022-08-23T23:51:22.646Z,22.82
2022-08-23T23:53:50.476Z,22.80
2022-08-23T23:56:18.080Z,22.82
2022-08-23T23:58:45.336Z,22.82
